Disclaimer

Please do not use the information listed here in-flight or in-navigation, as they are not provided to us by the airports but are provided by volunteers, so they might be outdated.

Search


Regions


Airport information page

Radio informations:
SANTIAGO TWR - 118.1 MHz
Clearance delivery - 121.7 MHz

Airport informations:
Latitude: 33° 23' 34.71" S
Longitude: 070° 47' 08.89" W
Elevation: 1555 feet - 474 meters
Operating hours: 24 hour operations
Operating agency: Civil government, landing fees and diplomatic clearance may be required
Timezone: UTC-4(-3DT)
Fuel: Jet A1, without icing nhibitor.

Runway information:
17R/35L - 12467 x 148 feet< - >3800 x 45 meters
17L/35R - 12298 x 180 feet< - >3748 x 55 meters

Recent METARs:
SCEL 122000Z VRB06KT 9999 BKN050 BKN070 19/04 Q1018 NOSIG
SCEL 122100Z 24011KT 9999 BKN050 18/04 Q1018 NOSIG
SCEL 122100Z 24011KT 9999 BKN050 18/04 Q1018 NOSIG

Airport on the map: